createdAt,value
2019-06-20T00:00:29.326Z,61.72
2019-06-20T00:02:59.918Z,62.20
2019-06-20T00:05:30.567Z,62.26
2019-06-20T00:08:01.290Z,61.44
2019-06-20T00:10:31.751Z,61.48
2019-06-20T00:13:02.201Z,61.19
2019-06-20T00:15:32.703Z,61.04
2019-06-20T00:18:03.166Z,61.70
2019-06-20T00:20:33.636Z,62.22
2019-06-20T00:23:04.188Z,61.74
2019-06-20T00:25:34.708Z,62.14
2019-06-20T00:28:05.291Z,62.32
2019-06-20T00:30:35.792Z,62.79
2019-06-20T00:33:06.285Z,62.98
2019-06-20T00:35:36.777Z,62.83
2019-06-20T00:38:07.278Z,63.14
2019-06-20T00:40:37.840Z,63.12
2019-06-20T00:43:17.626Z,63.13
2019-06-20T00:45:40.583Z,63.24
2019-06-20T00:48:11.063Z,63.11
2019-06-20T00:50:41.516Z,62.83
2019-06-20T00:53:12.104Z,62.77
2019-06-20T00:55:42.606Z,62.64
2019-06-20T00:58:13.053Z,63.34
2019-06-20T01:00:43.559Z,63.68
2019-06-20T01:03:14.299Z,63.64
2019-06-20T01:05:44.795Z,63.69
2019-06-20T01:08:15.253Z,63.67
2019-06-20T01:10:45.745Z,63.87
2019-06-20T01:13:32.295Z,63.68
2019-06-20T01:15:48.408Z,63.76
2019-06-20T01:18:18.957Z,63.76
2019-06-20T01:20:49.435Z,63.55
2019-06-20T01:23:19.887Z,63.46
2019-06-20T01:25:50.598Z,63.31
2019-06-20T01:28:21.166Z,62.96
2019-06-20T01:30:51.621Z,62.87
2019-06-20T01:33:22.193Z,62.60
2019-06-20T01:35:52.674Z,62.76
2019-06-20T01:38:23.292Z,62.75
2019-06-20T01:40:53.782Z,63.34
2019-06-20T01:43:24.268Z,63.43
2019-06-20T01:45:54.726Z,62.77
2019-06-20T01:48:25.216Z,62.89
2019-06-20T01:50:55.699Z,63.00
2019-06-20T01:53:26.159Z,63.78
2019-06-20T01:55:57.201Z,63.25
2019-06-20T01:58:27.724Z,63.05
2019-06-20T02:00:58.176Z,63.17
2019-06-20T02:03:28.865Z,63.42
2019-06-20T02:05:59.376Z,63.46
2019-06-20T02:08:29.826Z,63.55
2019-06-20T02:11:00.319Z,63.89
2019-06-20T02:13:30.788Z,63.69
2019-06-20T02:16:01.292Z,63.07
2019-06-20T02:18:31.880Z,63.07
2019-06-20T02:21:02.650Z,63.22
2019-06-20T02:23:33.148Z,63.16
2019-06-20T02:26:03.624Z,62.96
2019-06-20T02:28:34.102Z,62.95
2019-06-20T02:31:04.585Z,63.27
2019-06-20T02:33:35.036Z,62.92
2019-06-20T02:36:05.629Z,63.04
2019-06-20T02:38:36.067Z,63.23
2019-06-20T02:41:06.734Z,62.75
2019-06-20T02:43:37.187Z,63.50
2019-06-20T02:46:07.677Z,63.61
2019-06-20T02:48:38.178Z,63.45
2019-06-20T02:51:08.668Z,63.57
2019-06-20T02:53:39.526Z,64.14
2019-06-20T02:56:10.015Z,64.29
2019-06-20T02:58:40.505Z,64.55
2019-06-20T03:01:11.065Z,64.17
2019-06-20T03:03:41.556Z,64.35
2019-06-20T03:06:12.040Z,64.04
2019-06-20T03:08:42.676Z,64.59
2019-06-20T03:11:13.228Z,65.00
2019-06-20T03:13:43.673Z,65.30
2019-06-20T03:16:14.179Z,65.00
2019-06-20T03:18:44.637Z,65.32
2019-06-20T03:21:15.129Z,64.83
2019-06-20T03:23:45.585Z,64.85
2019-06-20T03:26:16.114Z,64.43
2019-06-20T03:28:46.578Z,64.77
2019-06-20T03:31:17.102Z,63.99
2019-06-20T03:33:47.571Z,63.80
2019-06-20T03:36:18.067Z,63.50
2019-06-20T03:38:48.511Z,62.95
2019-06-20T03:41:19.003Z,62.97
2019-06-20T03:43:49.463Z,62.77
2019-06-20T03:46:19.982Z,61.90
2019-06-20T03:48:50.450Z,62.05
2019-06-20T03:51:20.940Z,61.61
2019-06-20T03:53:51.396Z,61.64
2019-06-20T03:56:21.892Z,61.15
2019-06-20T03:58:52.376Z,60.09
2019-06-20T04:01:22.850Z,60.49
2019-06-20T04:03:53.349Z,60.21
2019-06-20T04:06:23.811Z,59.60
2019-06-20T04:08:54.306Z,59.06
2019-06-20T04:11:24.759Z,58.05
2019-06-20T04:13:55.263Z,57.72
2019-06-20T04:16:25.721Z,57.31
2019-06-20T04:18:56.205Z,55.91
2019-06-20T04:21:26.660Z,55.52
2019-06-20T04:23:57.169Z,54.34
2019-06-20T04:26:27.696Z,54.53
2019-06-20T04:28:58.242Z,54.42
2019-06-20T04:31:28.712Z,53.85
2019-06-20T04:33:59.231Z,52.98
2019-06-20T04:36:29.690Z,52.35
2019-06-20T04:39:00.154Z,52.51
2019-06-20T04:41:30.662Z,52.21
2019-06-20T04:44:01.265Z,52.41
2019-06-20T04:46:37.814Z,51.17
2019-06-20T04:49:08.337Z,51.63
2019-06-20T04:51:38.946Z,50.50
2019-06-20T04:54:09.508Z,51.14
2019-06-20T04:56:40.124Z,50.56
2019-06-20T04:59:10.636Z,50.07
2019-06-20T05:01:41.165Z,49.14
2019-06-20T05:04:13.686Z,48.17
2019-06-20T05:06:47.374Z,49.27
2019-06-20T05:09:17.891Z,48.05
2019-06-20T05:11:48.585Z,47.90
2019-06-20T05:14:19.566Z,48.32
2019-06-20T05:16:50.022Z,48.68
2019-06-20T05:19:20.624Z,48.34
2019-06-20T05:21:51.182Z,47.88
2019-06-20T05:24:21.660Z,47.92
2019-06-20T05:26:54.126Z,47.44
2019-06-20T05:29:24.719Z,47.35
2019-06-20T05:31:55.850Z,47.20
2019-06-20T05:34:26.309Z,46.89
2019-06-20T05:36:56.834Z,45.53
2019-06-20T05:39:28.679Z,46.28
2019-06-20T05:41:59.222Z,46.45
2019-06-20T05:44:29.704Z,45.81
2019-06-20T05:47:11.834Z,45.31
2019-06-20T05:49:32.502Z,45.74
2019-06-20T05:52:03.227Z,45.41
2019-06-20T05:54:33.744Z,45.17
2019-06-20T05:57:04.745Z,44.74
2019-06-20T05:59:35.356Z,45.35
2019-06-20T06:02:06.152Z,45.00
2019-06-20T06:04:36.783Z,43.72
2019-06-20T06:07:13.939Z,43.09
2019-06-20T06:09:42.399Z,42.60
2019-06-20T06:12:12.888Z,43.55
2019-06-20T06:14:43.404Z,43.40
2019-06-20T06:17:14.004Z,43.18
2019-06-20T06:19:44.478Z,42.84
2019-06-20T06:22:14.998Z,42.08
2019-06-20T06:24:45.836Z,42.44
2019-06-20T06:27:16.909Z,42.03
2019-06-20T06:29:49.542Z,42.15
2019-06-20T06:32:20.316Z,41.84
2019-06-20T06:34:50.848Z,41.66
2019-06-20T06:37:22.668Z,41.02
2019-06-20T06:39:58.423Z,40.42
2019-06-20T06:42:29.386Z,40.18
2019-06-20T06:44:59.950Z,40.13
2019-06-20T06:47:30.484Z,39.59
2019-06-20T06:50:01.000Z,39.76
2019-06-20T06:52:31.691Z,40.34
2019-06-20T06:55:02.618Z,40.48
2019-06-20T06:57:33.430Z,39.98
2019-06-20T07:00:06.452Z,39.63
2019-06-20T07:02:37.036Z,40.11
2019-06-20T07:05:07.975Z,39.12
2019-06-20T07:07:38.629Z,39.61
2019-06-20T07:10:10.980Z,39.94
2019-06-20T07:12:41.551Z,38.96
2019-06-20T07:15:13.697Z,39.73
2019-06-20T07:17:44.589Z,39.35
2019-06-20T07:20:15.595Z,38.60
2019-06-20T07:22:47.051Z,38.00
2019-06-20T07:25:18.614Z,38.26
2019-06-20T07:27:49.183Z,38.08
2019-06-20T07:30:20.425Z,37.72
2019-06-20T07:32:50.994Z,37.45
2019-06-20T07:35:22.051Z,37.18
2019-06-20T07:37:55.674Z,37.32
2019-06-20T07:40:26.697Z,37.00
2019-06-20T07:42:57.154Z,37.25
2019-06-20T07:45:28.385Z,36.92
2019-06-20T07:47:59.001Z,36.20
2019-06-20T07:50:29.730Z,36.28
2019-06-20T07:53:02.508Z,36.32
2019-06-20T07:55:34.506Z,36.82
2019-06-20T07:58:05.327Z,36.55
2019-06-20T08:00:36.505Z,36.62
2019-06-20T08:03:07.264Z,36.32
2019-06-20T08:05:37.952Z,36.31
2019-06-20T08:08:08.505Z,35.53
2019-06-20T08:10:39.311Z,35.51
2019-06-20T08:13:10.489Z,35.65
2019-06-20T08:15:41.262Z,35.49
2019-06-20T08:18:11.799Z,34.86
2019-06-20T08:20:44.217Z,34.62
2019-06-20T08:23:14.932Z,34.98
2019-06-20T08:25:45.827Z,34.54
2019-06-20T08:28:17.423Z,35.17
2019-06-20T08:30:48.050Z,35.85
2019-06-20T08:33:19.152Z,35.94
2019-06-20T08:35:49.727Z,35.63
2019-06-20T08:38:21.065Z,35.12
2019-06-20T08:40:51.587Z,34.35
2019-06-20T08:43:22.402Z,33.95
2019-06-20T08:45:53.053Z,34.15
2019-06-20T08:48:23.622Z,33.69
2019-06-20T08:50:54.240Z,32.26
2019-06-20T08:53:24.779Z,31.85
2019-06-20T08:55:56.300Z,31.91
2019-06-20T08:58:28.108Z,32.18
2019-06-20T09:01:01.302Z,32.17
2019-06-20T09:03:31.308Z,32.82
2019-06-20T09:08:32.398Z,30.40
2019-06-20T09:11:04.017Z,27.94
2019-06-20T09:13:34.809Z,27.96
2019-06-20T09:16:05.533Z,29.64
2019-06-20T09:18:36.098Z,29.56
2019-06-20T09:21:06.961Z,29.60
2019-06-20T09:23:37.565Z,30.35
2019-06-20T09:26:11.197Z,31.16
2019-06-20T09:28:41.713Z,30.83
2019-06-20T09:31:12.448Z,31.73
2019-06-20T09:33:43.101Z,31.37
2019-06-20T09:36:13.710Z,29.80
2019-06-20T09:38:44.307Z,32.18
2019-06-20T09:41:15.008Z,29.25
2019-06-20T09:43:45.497Z,29.23
2019-06-20T09:46:16.052Z,30.22
2019-06-20T09:48:46.604Z,28.64
2019-06-20T09:51:17.152Z,27.92
2019-06-20T09:53:48.505Z,27.94
2019-06-20T09:56:19.572Z,28.46
2019-06-20T09:58:51.169Z,29.06
2019-06-20T10:01:21.862Z,29.09
2019-06-20T10:03:52.502Z,29.75
2019-06-20T10:06:23.492Z,30.14
2019-06-20T10:08:54.346Z,29.63
2019-06-20T10:11:24.954Z,28.98
2019-06-20T10:13:56.076Z,28.41
2019-06-20T10:16:26.702Z,28.62
2019-06-20T10:18:58.626Z,27.09
2019-06-20T10:21:29.113Z,28.36
2019-06-20T10:24:00.276Z,28.12
2019-06-20T10:26:30.801Z,27.40
2019-06-20T10:29:01.646Z,27.01
2019-06-20T10:31:32.213Z,28.27
2019-06-20T10:34:02.803Z,27.78
2019-06-20T10:36:33.410Z,28.80
2019-06-20T10:39:05.597Z,28.09
2019-06-20T10:41:36.083Z,28.48
2019-06-20T10:44:06.737Z,27.56
2019-06-20T10:46:37.268Z,26.99
2019-06-20T10:49:07.865Z,26.83
2019-06-20T10:51:45.999Z,26.54
2019-06-20T10:54:16.576Z,25.98
2019-06-20T10:56:47.266Z,25.95
2019-06-20T10:59:17.711Z,26.29
2019-06-20T11:01:48.614Z,26.56
2019-06-20T11:04:19.253Z,27.34
2019-06-20T11:06:49.852Z,26.57
2019-06-20T11:09:20.453Z,27.12
2019-06-20T11:11:51.100Z,27.07
2019-06-20T11:14:22.156Z,27.32
2019-06-20T11:16:52.615Z,27.47
2019-06-20T11:19:23.171Z,27.25
2019-06-20T11:21:53.670Z,26.99
2019-06-20T11:24:24.527Z,26.22
2019-06-20T11:26:54.999Z,26.40
2019-06-20T11:29:25.612Z,27.77
2019-06-20T11:31:56.275Z,27.87
2019-06-20T11:34:26.777Z,26.71
2019-06-20T11:36:57.272Z,26.19
2019-06-20T11:39:27.771Z,26.12
2019-06-20T11:41:58.278Z,26.04
2019-06-20T11:44:28.752Z,26.95
2019-06-20T11:47:00.216Z,27.24
2019-06-20T11:49:30.736Z,26.41
2019-06-20T11:52:01.307Z,25.40
2019-06-20T11:54:32.879Z,26.16
2019-06-20T11:57:04.126Z,25.38
2019-06-20T11:59:34.711Z,26.11
2019-06-20T12:02:05.461Z,25.81
2019-06-20T12:04:36.009Z,24.95
2019-06-20T12:07:06.525Z,24.91
2019-06-20T12:09:37.955Z,24.77
2019-06-20T12:12:09.292Z,23.39
2019-06-20T12:14:41.380Z,23.31
2019-06-20T12:17:11.984Z,24.43
2019-06-20T12:19:42.525Z,24.57
2019-06-20T12:22:13.095Z,24.49
2019-06-20T12:24:44.510Z,23.21
2019-06-20T12:27:15.013Z,24.43
2019-06-20T12:29:46.489Z,24.52
2019-06-20T12:32:19.347Z,24.82
2019-06-20T12:34:50.061Z,25.18
2019-06-20T12:37:20.627Z,25.41
2019-06-20T12:39:51.183Z,24.78
2019-06-20T12:42:21.684Z,24.22
2019-06-20T12:44:52.207Z,24.44
2019-06-20T12:47:22.668Z,23.42
2019-06-20T12:49:53.275Z,23.41
2019-06-20T12:52:28.407Z,23.54
2019-06-20T12:54:59.014Z,21.73
2019-06-20T12:57:29.552Z,23.02
2019-06-20T13:00:00.212Z,22.82
2019-06-20T13:02:31.123Z,22.20
2019-06-20T13:05:01.822Z,22.25
2019-06-20T13:07:32.469Z,21.59
2019-06-20T13:10:02.979Z,22.19
2019-06-20T13:12:33.511Z,22.23
2019-06-20T13:15:04.264Z,23.23
2019-06-20T13:17:34.838Z,24.15
2019-06-20T13:20:05.841Z,24.91
2019-06-20T13:22:37.845Z,25.17
2019-06-20T13:25:09.590Z,23.83
2019-06-20T13:27:41.060Z,24.11
2019-06-20T13:30:14.662Z,24.50
2019-06-20T13:32:45.813Z,24.84
2019-06-20T13:35:17.893Z,26.60
2019-06-20T13:37:49.850Z,25.61
2019-06-20T13:40:20.816Z,24.81
2019-06-20T13:42:54.465Z,24.69
2019-06-20T13:45:25.940Z,25.17
2019-06-20T13:47:56.956Z,24.56
2019-06-20T13:50:28.256Z,25.57
2019-06-20T13:52:58.850Z,24.14
2019-06-20T13:55:29.505Z,25.12
2019-06-20T13:58:00.054Z,24.10
2019-06-20T14:00:30.970Z,23.86
2019-06-20T14:03:01.486Z,23.86
2019-06-20T14:05:32.165Z,24.57
2019-06-20T14:08:03.177Z,23.02
2019-06-20T14:10:33.668Z,23.13
2019-06-20T14:13:18.248Z,23.44
2019-06-20T14:15:36.639Z,23.91
2019-06-20T14:18:07.475Z,23.91
2019-06-20T14:20:37.947Z,23.86
2019-06-20T14:23:08.519Z,23.98
2019-06-20T14:25:39.113Z,24.24
2019-06-20T14:28:09.688Z,24.95
2019-06-20T14:30:40.220Z,24.85
2019-06-20T14:33:10.909Z,24.93
2019-06-20T14:35:43.481Z,25.01
2019-06-20T14:38:13.730Z,25.77
2019-06-20T14:40:45.326Z,24.07
2019-06-20T14:43:15.896Z,24.49
2019-06-20T14:45:46.874Z,25.50
2019-06-20T14:48:17.403Z,24.47
2019-06-20T14:50:49.504Z,23.75
2019-06-20T14:53:20.077Z,23.94
2019-06-20T14:55:51.725Z,24.07
2019-06-20T14:58:22.249Z,25.48
2019-06-20T15:00:54.109Z,24.94
2019-06-20T15:03:24.692Z,24.89
2019-06-20T15:05:55.155Z,25.30
2019-06-20T15:08:25.716Z,25.11
2019-06-20T15:10:56.172Z,25.04
2019-06-20T15:13:26.628Z,25.49
2019-06-20T15:15:57.247Z,25.94
2019-06-20T15:18:28.000Z,25.38
2019-06-20T15:20:59.499Z,25.30
2019-06-20T15:23:30.060Z,25.02
2019-06-20T15:26:00.572Z,26.02
2019-06-20T15:28:31.047Z,27.07
2019-06-20T15:31:01.502Z,30.32
2019-06-20T15:33:31.984Z,32.46
2019-06-20T15:36:02.482Z,33.80
2019-06-20T15:38:33.095Z,34.99
2019-06-20T15:41:03.625Z,35.23
2019-06-20T15:43:34.085Z,35.45
2019-06-20T15:46:04.863Z,35.68
2019-06-20T15:48:35.541Z,35.86
2019-06-20T15:51:06.228Z,35.61
2019-06-20T15:53:36.766Z,36.78
2019-06-20T15:56:07.225Z,37.41
2019-06-20T15:58:37.681Z,38.41
2019-06-20T16:01:08.197Z,38.80
2019-06-20T16:03:38.762Z,38.59
2019-06-20T16:06:09.361Z,39.00
2019-06-20T16:08:39.807Z,39.58
2019-06-20T16:11:10.324Z,39.42
2019-06-20T16:13:40.900Z,39.71
2019-06-20T16:16:11.355Z,39.55
2019-06-20T16:18:41.838Z,39.89
2019-06-20T16:21:12.289Z,39.48
2019-06-20T16:23:42.804Z,39.79
2019-06-20T16:26:13.246Z,39.80
2019-06-20T16:28:43.920Z,40.06
2019-06-20T16:31:26.256Z,39.97
2019-06-20T16:33:46.610Z,39.83
2019-06-20T16:36:17.108Z,39.68
2019-06-20T16:38:47.602Z,40.00
2019-06-20T16:41:18.191Z,39.89
2019-06-20T16:43:48.789Z,40.43
2019-06-20T16:46:19.262Z,41.17
2019-06-20T16:48:49.750Z,41.44
2019-06-20T16:51:20.539Z,41.32
2019-06-20T16:53:51.049Z,42.13
2019-06-20T16:56:21.594Z,41.70
2019-06-20T16:58:52.048Z,41.35
2019-06-20T17:01:22.547Z,42.22
2019-06-20T17:03:54.972Z,41.80
2019-06-20T17:06:25.432Z,41.86
2019-06-20T17:08:56.284Z,41.82
2019-06-20T17:11:26.751Z,41.47
2019-06-20T17:13:57.245Z,40.89
2019-06-20T17:16:27.741Z,40.16
2019-06-20T17:18:58.213Z,39.98
2019-06-20T17:21:28.721Z,40.56
2019-06-20T17:23:59.432Z,40.85
2019-06-20T17:26:30.314Z,41.09
2019-06-20T17:29:00.896Z,40.88
2019-06-20T17:31:31.485Z,41.41
2019-06-20T17:34:02.013Z,41.63
2019-06-20T17:36:32.467Z,41.70
2019-06-20T17:39:02.955Z,42.41
2019-06-20T17:41:33.577Z,42.74
2019-06-20T17:44:04.076Z,42.82
2019-06-20T17:46:34.584Z,42.97
2019-06-20T17:49:05.146Z,43.78
2019-06-20T17:51:35.764Z,44.25
2019-06-20T17:54:06.467Z,44.33
2019-06-20T17:56:37.013Z,43.91
2019-06-20T17:59:07.466Z,44.21
2019-06-20T18:01:38.112Z,44.71
2019-06-20T18:04:13.806Z,45.08
2019-06-20T18:06:40.873Z,44.44
2019-06-20T18:09:11.783Z,44.23
2019-06-20T18:11:42.240Z,44.54
2019-06-20T18:14:12.718Z,44.50
2019-06-20T18:16:43.184Z,44.94
2019-06-20T18:19:13.762Z,44.97
2019-06-20T18:21:44.234Z,44.94
2019-06-20T18:24:14.769Z,44.92
2019-06-20T18:26:45.257Z,44.86
2019-06-20T18:29:15.760Z,44.24
2019-06-20T18:31:46.268Z,44.03
2019-06-20T18:34:29.679Z,43.70
2019-06-20T18:36:50.763Z,43.70
2019-06-20T18:39:21.261Z,43.74
2019-06-20T18:41:51.935Z,43.36
2019-06-20T18:44:22.501Z,43.46
2019-06-20T18:46:52.969Z,43.03
2019-06-20T18:49:23.524Z,43.24
2019-06-20T18:51:54.055Z,43.82
2019-06-20T18:54:24.616Z,43.64
2019-06-20T18:56:55.225Z,43.58
2019-06-20T18:59:25.856Z,43.32
2019-06-20T19:01:56.312Z,43.61
2019-06-20T19:04:26.758Z,43.47
2019-06-20T19:06:57.286Z,43.56
2019-06-20T19:09:27.751Z,43.42
2019-06-20T19:11:58.232Z,43.46
2019-06-20T19:14:28.790Z,43.60
2019-06-20T19:16:59.292Z,43.35
2019-06-20T19:19:29.826Z,43.87
2019-06-20T19:22:00.283Z,43.90
2019-06-20T19:24:30.749Z,43.88
2019-06-20T19:27:01.270Z,44.53
2019-06-20T19:29:31.798Z,44.66
2019-06-20T19:32:02.264Z,44.79
2019-06-20T19:34:32.757Z,44.57
2019-06-20T19:37:03.289Z,44.51
2019-06-20T19:39:33.784Z,45.18
2019-06-20T19:42:04.384Z,45.34
2019-06-20T19:44:34.822Z,45.62
2019-06-20T19:47:05.421Z,45.85
2019-06-20T19:49:35.858Z,46.04
2019-06-20T19:52:06.304Z,46.01
2019-06-20T19:54:36.851Z,46.28
2019-06-20T19:57:07.339Z,46.59
2019-06-20T19:59:37.834Z,46.62
2019-06-20T20:02:08.413Z,46.39
2019-06-20T20:04:39.075Z,46.72
2019-06-20T20:07:09.611Z,46.95
2019-06-20T20:09:40.316Z,47.17
2019-06-20T20:12:10.777Z,47.17
2019-06-20T20:14:41.269Z,47.28
2019-06-20T20:17:11.720Z,47.38
2019-06-20T20:19:42.204Z,47.77
2019-06-20T20:22:12.669Z,47.51
2019-06-20T20:24:43.134Z,47.79
2019-06-20T20:27:13.733Z,47.66
2019-06-20T20:29:44.215Z,47.77
2019-06-20T20:32:14.671Z,47.96
2019-06-20T20:34:45.118Z,48.22
2019-06-20T20:37:15.629Z,48.09
2019-06-20T20:39:46.065Z,48.80
2019-06-20T20:42:17.875Z,48.60
2019-06-20T20:44:48.403Z,48.98
2019-06-20T20:47:18.898Z,49.69
2019-06-20T20:49:49.348Z,50.16
2019-06-20T20:52:19.831Z,50.45
2019-06-20T20:54:50.339Z,50.15
2019-06-20T20:57:20.784Z,50.11
2019-06-20T20:59:51.247Z,50.36
2019-06-20T21:02:21.766Z,50.26
2019-06-20T21:04:52.283Z,50.35
2019-06-20T21:07:22.764Z,50.53
2019-06-20T21:09:53.282Z,50.19
2019-06-20T21:12:23.767Z,49.93
2019-06-20T21:14:54.268Z,50.13
2019-06-20T21:17:24.733Z,50.51
2019-06-20T21:19:55.236Z,50.99
2019-06-20T21:22:27.094Z,51.31
2019-06-20T21:24:57.536Z,51.93
2019-06-20T21:27:28.000Z,52.33
2019-06-20T21:29:58.479Z,52.73
2019-06-20T21:32:28.936Z,52.50
2019-06-20T21:34:59.437Z,52.61
2019-06-20T21:37:29.920Z,52.08
2019-06-20T21:40:00.355Z,52.26
2019-06-20T21:42:30.936Z,51.79
2019-06-20T21:45:01.423Z,51.75
2019-06-20T21:47:31.957Z,51.42
2019-06-20T21:50:02.606Z,51.38
2019-06-20T21:52:33.092Z,50.94
2019-06-20T21:55:03.555Z,51.08
2019-06-20T21:57:34.049Z,51.73
2019-06-20T22:00:06.132Z,52.18
2019-06-20T22:02:36.960Z,51.81
2019-06-20T22:05:08.188Z,51.61
2019-06-20T22:07:38.717Z,51.96
2019-06-20T22:10:10.084Z,52.13
2019-06-20T22:12:40.576Z,52.11
2019-06-20T22:15:11.421Z,52.85
2019-06-20T22:17:41.874Z,52.73
2019-06-20T22:20:13.555Z,52.72
2019-06-20T22:22:44.010Z,53.30
2019-06-20T22:25:14.921Z,53.36
2019-06-20T22:27:45.369Z,53.91
2019-06-20T22:30:16.544Z,53.41
2019-06-20T22:32:47.048Z,53.44
2019-06-20T22:35:17.625Z,53.47
2019-06-20T22:37:48.123Z,53.09
2019-06-20T22:40:18.674Z,53.41
2019-06-20T22:42:49.198Z,53.09
2019-06-20T22:45:19.729Z,53.14
2019-06-20T22:47:50.204Z,53.11
2019-06-20T22:50:20.896Z,53.07
2019-06-20T22:52:51.343Z,53.30
2019-06-20T22:55:21.948Z,53.20
2019-06-20T22:57:52.414Z,53.03
2019-06-20T23:00:23.275Z,53.71
2019-06-20T23:02:53.772Z,53.51
2019-06-20T23:05:24.247Z,53.30
2019-06-20T23:07:54.773Z,53.29
2019-06-20T23:10:25.238Z,53.48
2019-06-20T23:12:55.732Z,53.54
2019-06-20T23:15:26.288Z,53.38
2019-06-20T23:17:56.775Z,53.63
2019-06-20T23:20:27.320Z,53.55
2019-06-20T23:22:57.877Z,54.13
2019-06-20T23:25:28.466Z,53.95
2019-06-20T23:27:59.038Z,54.48
2019-06-20T23:30:29.823Z,54.58
2019-06-20T23:33:00.275Z,54.49
2019-06-20T23:35:30.761Z,54.46
2019-06-20T23:38:01.238Z,54.44
2019-06-20T23:40:31.701Z,54.17
2019-06-20T23:43:02.186Z,54.34
2019-06-20T23:45:32.837Z,54.22
2019-06-20T23:48:03.503Z,53.91
2019-06-20T23:50:34.007Z,53.99
2019-06-20T23:53:10.112Z,54.05
2019-06-20T23:55:40.608Z,53.98
2019-06-20T23:58:11.173Z,54.24
